createdAt,value
2022-08-28T00:01:22.396Z,21.00
2022-08-28T00:03:54.297Z,20.90
2022-08-28T00:06:27.175Z,20.70
2022-08-28T00:08:59.240Z,20.70
2022-08-28T00:11:34.109Z,20.60
2022-08-28T00:14:06.458Z,20.60
2022-08-28T00:16:37.960Z,20.60
2022-08-28T00:19:11.151Z,20.50
2022-08-28T00:21:44.366Z,20.80
2022-08-28T00:24:16.450Z,20.90
2022-08-28T00:27:05.822Z,20.90
2022-08-28T00:29:37.097Z,20.90
2022-08-28T00:32:10.555Z,20.90
2022-08-28T00:34:41.598Z,21.30
2022-08-28T00:37:13.026Z,21.50
2022-08-28T00:39:44.174Z,21.80
2022-08-28T00:42:19.340Z,22.00
2022-08-28T00:44:51.157Z,22.30
2022-08-28T00:47:27.372Z,22.50
2022-08-28T00:50:00.071Z,22.30
2022-08-28T00:52:31.638Z,22.50
2022-08-28T00:55:05.274Z,22.50
2022-08-28T00:57:42.616Z,22.40
2022-08-28T01:00:17.716Z,22.40
2022-08-28T01:02:49.240Z,22.50
2022-08-28T01:05:20.705Z,22.20
2022-08-28T01:07:53.350Z,22.10
2022-08-28T01:10:27.644Z,22.20
2022-08-28T01:13:01.779Z,22.30
2022-08-28T01:15:36.980Z,22.50
2022-08-28T01:18:10.961Z,22.60
2022-08-28T01:20:48.599Z,22.60
2022-08-28T01:23:30.499Z,22.20
2022-08-28T01:26:11.706Z,21.70
2022-08-28T01:28:44.978Z,21.40
2022-08-28T01:31:18.240Z,21.00
2022-08-28T01:33:50.611Z,20.70
2022-08-28T01:36:22.784Z,20.50
2022-08-28T01:38:56.794Z,20.30
2022-08-28T01:41:30.645Z,20.10
2022-08-28T01:44:01.639Z,19.90
2022-08-28T01:46:33.172Z,19.80
2022-08-28T01:51:49.103Z,19.70
2022-08-28T01:54:23.805Z,19.60
2022-08-28T01:56:58.895Z,19.50
2022-08-28T01:59:30.251Z,19.40
2022-08-28T02:02:01.306Z,19.30
2022-08-28T02:04:34.226Z,19.20
2022-08-28T02:07:06.170Z,19.10
2022-08-28T02:09:37.433Z,19.00
2022-08-28T02:12:11.936Z,18.90
2022-08-28T02:14:45.198Z,18.90
2022-08-28T02:17:17.270Z,18.80
2022-08-28T02:19:49.284Z,18.70
2022-08-28T02:22:20.574Z,18.60
2022-08-28T02:24:52.263Z,18.60
2022-08-28T02:27:25.929Z,18.60
2022-08-28T02:29:57.381Z,18.50
2022-08-28T02:32:29.409Z,18.50
2022-08-28T02:35:01.059Z,18.40
2022-08-28T02:37:32.171Z,18.40
2022-08-28T02:40:04.400Z,18.30
2022-08-28T02:42:37.734Z,18.20
2022-08-28T02:45:13.315Z,18.20
2022-08-28T02:47:45.719Z,18.10
2022-08-28T02:50:20.389Z,18.00
2022-08-28T02:52:51.678Z,17.90
2022-08-28T02:55:23.776Z,17.80
2022-08-28T02:57:57.491Z,17.70
2022-08-28T03:00:30.289Z,17.60
2022-08-28T03:03:02.401Z,17.50
2022-08-28T03:05:34.097Z,17.50
2022-08-28T03:08:05.575Z,17.40
2022-08-28T03:10:36.924Z,17.30
2022-08-28T03:13:11.433Z,17.20
2022-08-28T03:15:58.809Z,17.10
2022-08-28T03:18:33.808Z,17.10
2022-08-28T03:21:05.101Z,17.00
2022-08-28T03:23:36.377Z,16.90
2022-08-28T03:26:09.787Z,16.80
2022-08-28T03:28:45.626Z,16.70
2022-08-28T03:31:19.012Z,16.70
2022-08-28T03:33:51.035Z,16.70
2022-08-28T03:36:25.919Z,16.70
2022-08-28T03:38:59.618Z,16.70
2022-08-28T03:41:32.912Z,16.70
2022-08-28T03:44:09.900Z,16.80
2022-08-28T03:46:42.235Z,16.80
2022-08-28T03:49:14.566Z,16.90
2022-08-28T03:51:46.128Z,16.90
2022-08-28T03:54:19.617Z,16.90
2022-08-28T03:56:50.843Z,16.90
2022-08-28T03:59:26.642Z,17.00
2022-08-28T04:02:02.730Z,17.00
2022-08-28T04:04:34.414Z,17.00
2022-08-28T04:07:06.000Z,16.90
2022-08-28T04:09:36.897Z,16.90
2022-08-28T04:12:09.133Z,16.70
2022-08-28T04:14:44.573Z,16.60
2022-08-28T04:17:17.761Z,16.60
2022-08-28T04:19:49.417Z,16.50
2022-08-28T04:22:21.491Z,16.50
2022-08-28T04:24:55.259Z,16.40
2022-08-28T04:27:27.719Z,16.40
2022-08-28T04:30:01.167Z,16.40
2022-08-28T04:32:32.270Z,16.40
2022-08-28T04:35:04.032Z,16.30
2022-08-28T04:37:35.823Z,16.30
2022-08-28T04:40:09.811Z,16.30
2022-08-28T04:42:44.039Z,16.30
2022-08-28T04:45:17.477Z,16.20
2022-08-28T04:47:49.265Z,16.10
2022-08-28T04:50:21.250Z,16.10
2022-08-28T04:52:54.297Z,16.10
2022-08-28T04:55:45.105Z,16.00
2022-08-28T04:58:18.171Z,16.00
2022-08-28T05:00:58.276Z,15.90
2022-08-28T05:03:30.262Z,15.90
2022-08-28T05:06:01.850Z,15.90
2022-08-28T05:08:33.973Z,15.90
2022-08-28T05:11:33.448Z,15.90
2022-08-28T05:14:08.395Z,15.90
2022-08-28T05:16:48.558Z,15.80
2022-08-28T05:19:20.669Z,15.70
2022-08-28T05:21:52.081Z,15.70
2022-08-28T05:24:24.005Z,15.70
2022-08-28T05:26:56.552Z,15.60
2022-08-28T05:29:28.924Z,15.50
2022-08-28T05:32:02.178Z,15.60
2022-08-28T05:34:33.677Z,15.50
2022-08-28T05:37:04.925Z,15.50
2022-08-28T05:39:36.188Z,15.40
2022-08-28T05:42:07.851Z,15.40
2022-08-28T05:44:39.686Z,15.30
2022-08-28T05:47:14.406Z,15.30
2022-08-28T05:49:46.116Z,15.20
2022-08-28T05:52:18.390Z,15.20
2022-08-28T05:54:50.077Z,15.20
2022-08-28T05:57:22.889Z,15.30
2022-08-28T05:59:54.672Z,15.30
2022-08-28T06:02:28.709Z,15.40
2022-08-28T06:05:00.960Z,15.60
2022-08-28T06:07:33.474Z,15.60
2022-08-28T06:10:05.117Z,15.70
2022-08-28T06:12:37.348Z,15.70
2022-08-28T06:15:09.525Z,15.80
2022-08-28T06:17:43.474Z,15.80
2022-08-28T06:20:15.514Z,15.80
2022-08-28T06:22:46.795Z,15.70
2022-08-28T06:25:18.749Z,15.70
2022-08-28T06:27:50.405Z,15.70
2022-08-28T06:30:22.868Z,15.60
2022-08-28T06:32:58.001Z,15.60
2022-08-28T06:35:29.685Z,15.50
2022-08-28T06:38:01.590Z,15.50
2022-08-28T06:40:33.765Z,15.50
2022-08-28T06:43:04.657Z,15.40
2022-08-28T06:45:36.065Z,15.30
2022-08-28T06:48:10.221Z,15.30
2022-08-28T06:50:45.500Z,15.20
2022-08-28T06:53:18.439Z,15.20
2022-08-28T06:55:59.135Z,15.20
2022-08-28T06:58:31.074Z,15.10
2022-08-28T07:01:14.251Z,15.10
2022-08-28T07:03:49.632Z,15.00
2022-08-28T07:06:21.444Z,15.00
2022-08-28T07:08:53.819Z,15.00
2022-08-28T07:11:27.728Z,14.90
2022-08-28T07:14:00.002Z,14.80
2022-08-28T07:16:33.371Z,14.90
2022-08-28T07:19:07.321Z,14.80
2022-08-28T07:21:39.358Z,14.80
2022-08-28T07:24:11.633Z,14.80
2022-08-28T07:26:45.149Z,15.00
2022-08-28T07:29:17.446Z,15.10
2022-08-28T07:31:50.126Z,15.00
2022-08-28T07:34:26.849Z,15.00
2022-08-28T07:37:04.754Z,15.00
2022-08-28T07:39:36.104Z,14.90
2022-08-28T07:42:07.593Z,15.00
2022-08-28T07:44:52.008Z,15.00
2022-08-28T07:47:23.698Z,14.90
2022-08-28T07:49:57.959Z,14.90
2022-08-28T07:52:31.134Z,14.90
2022-08-28T07:55:02.149Z,14.90
2022-08-28T07:57:33.275Z,14.80
2022-08-28T08:00:04.767Z,14.80
2022-08-28T08:02:36.273Z,14.80
2022-08-28T08:05:10.130Z,14.80
2022-08-28T08:07:43.893Z,14.80
2022-08-28T08:10:20.550Z,14.80
2022-08-28T08:12:52.384Z,14.80
2022-08-28T08:15:23.501Z,14.80
2022-08-28T08:17:54.489Z,14.80
2022-08-28T08:20:29.648Z,14.70
2022-08-28T08:23:00.682Z,14.70
2022-08-28T08:25:31.717Z,14.70
2022-08-28T08:28:05.900Z,14.60
2022-08-28T08:30:37.344Z,14.60
2022-08-28T08:33:08.585Z,14.60
2022-08-28T08:35:42.210Z,14.60
2022-08-28T08:38:13.498Z,14.60
2022-08-28T08:40:45.035Z,14.60
2022-08-28T08:43:19.444Z,14.60
2022-08-28T08:45:53.526Z,14.60
2022-08-28T08:48:30.934Z,14.60
2022-08-28T08:51:07.379Z,14.60
2022-08-28T08:53:46.250Z,14.60
2022-08-28T08:56:22.809Z,14.60
2022-08-28T08:58:58.525Z,14.50
2022-08-28T09:01:34.596Z,14.50
2022-08-28T09:04:15.823Z,14.50
2022-08-28T09:06:54.575Z,14.40
2022-08-28T09:09:33.550Z,14.40
2022-08-28T09:12:07.022Z,14.40
2022-08-28T09:14:51.003Z,14.30
2022-08-28T09:17:26.345Z,14.30
2022-08-28T09:19:58.215Z,14.30
2022-08-28T09:22:31.843Z,14.20
2022-08-28T09:25:03.028Z,14.30
2022-08-28T09:27:38.814Z,14.20
2022-08-28T09:30:13.826Z,14.20
2022-08-28T09:32:46.341Z,14.20
2022-08-28T09:35:28.772Z,14.10
2022-08-28T09:38:21.393Z,14.10
2022-08-28T09:41:12.808Z,14.00
2022-08-28T09:43:50.035Z,14.00
2022-08-28T09:46:26.122Z,14.00
2022-08-28T09:49:12.714Z,14.00
2022-08-28T09:51:45.822Z,13.90
2022-08-28T09:54:25.636Z,13.90
2022-08-28T09:56:58.027Z,13.90
2022-08-28T09:59:31.004Z,13.80
2022-08-28T10:02:14.126Z,13.80
2022-08-28T10:05:02.261Z,13.80
2022-08-28T10:07:42.280Z,13.70
2022-08-28T10:10:31.373Z,13.70
2022-08-28T10:13:12.277Z,13.70
2022-08-28T10:16:02.497Z,13.70
2022-08-28T10:18:42.244Z,13.70
2022-08-28T10:21:21.878Z,13.60
2022-08-28T10:24:14.128Z,13.60
2022-08-28T10:26:55.054Z,13.60
2022-08-28T10:29:36.398Z,13.70
2022-08-28T10:32:24.001Z,13.60
2022-08-28T10:35:06.824Z,13.60
2022-08-28T10:37:48.004Z,13.60
2022-08-28T10:40:24.369Z,13.60
2022-08-28T10:43:08.039Z,13.50
2022-08-28T10:45:41.485Z,13.50
2022-08-28T10:48:22.435Z,13.50
2022-08-28T10:50:57.891Z,13.50
2022-08-28T10:53:35.595Z,13.50
2022-08-28T10:56:10.904Z,13.50
2022-08-28T10:58:44.989Z,13.50
2022-08-28T11:01:18.474Z,13.40
2022-08-28T11:03:52.419Z,13.40
2022-08-28T11:06:29.743Z,13.40
2022-08-28T11:09:23.681Z,13.30
2022-08-28T11:12:01.561Z,13.30
2022-08-28T11:14:48.493Z,13.20
2022-08-28T11:17:44.403Z,13.20
2022-08-28T11:20:19.602Z,13.20
2022-08-28T11:22:56.003Z,13.20
2022-08-28T11:25:32.577Z,13.10
2022-08-28T11:28:21.137Z,13.10
2022-08-28T11:31:31.764Z,13.10
2022-08-28T11:34:03.853Z,13.00
2022-08-28T11:37:03.638Z,12.90
2022-08-28T11:39:34.846Z,12.90
2022-08-28T11:42:39.434Z,12.90
2022-08-28T11:45:21.345Z,12.80
2022-08-28T11:48:09.105Z,12.70
2022-08-28T11:50:56.644Z,12.70
2022-08-28T11:53:41.560Z,12.70
2022-08-28T11:56:48.272Z,12.70
2022-08-28T11:59:48.406Z,12.70
2022-08-28T12:03:02.181Z,12.70
2022-08-28T12:06:01.392Z,12.70
2022-08-28T12:09:11.601Z,12.70
2022-08-28T12:11:57.503Z,12.60
2022-08-28T12:15:04.993Z,12.60
2022-08-28T12:17:56.092Z,12.50
2022-08-28T12:20:39.665Z,12.40
2022-08-28T12:23:38.738Z,12.40
2022-08-28T12:26:13.209Z,12.40
2022-08-28T12:28:51.693Z,12.30
2022-08-28T12:32:17.188Z,12.30
2022-08-28T12:35:10.914Z,12.30
2022-08-28T12:37:52.357Z,12.30
2022-08-28T12:40:29.826Z,12.30
2022-08-28T12:43:02.865Z,12.40
2022-08-28T12:45:38.625Z,12.40
2022-08-28T12:48:18.165Z,12.50
2022-08-28T12:50:49.479Z,12.50
2022-08-28T12:53:21.519Z,12.50
2022-08-28T12:55:55.147Z,12.60
2022-08-28T12:58:35.079Z,12.60
2022-08-28T13:01:10.064Z,12.60
2022-08-28T13:03:53.626Z,12.60
2022-08-28T13:06:29.221Z,12.50
2022-08-28T13:09:06.030Z,12.50
2022-08-28T13:11:41.445Z,12.50
2022-08-28T13:14:44.845Z,12.50
2022-08-28T13:17:18.514Z,12.50
2022-08-28T13:20:04.431Z,12.50
2022-08-28T13:22:38.997Z,12.60
2022-08-28T13:25:11.517Z,12.60
2022-08-28T13:27:49.588Z,12.60
2022-08-28T13:30:28.242Z,12.70
2022-08-28T13:33:01.531Z,12.70
2022-08-28T13:35:37.985Z,12.70
2022-08-28T13:38:12.361Z,12.80
2022-08-28T13:40:58.441Z,12.80
2022-08-28T13:43:47.932Z,12.80
2022-08-28T13:46:19.413Z,12.90
2022-08-28T13:48:50.492Z,12.90
2022-08-28T13:51:30.001Z,12.90
2022-08-28T13:54:01.329Z,12.90
2022-08-28T13:56:32.535Z,13.00
2022-08-28T13:59:06.362Z,13.00
2022-08-28T14:01:50.657Z,13.10
2022-08-28T14:04:22.133Z,13.10
2022-08-28T14:06:55.084Z,13.20
2022-08-28T14:09:27.928Z,13.20
2022-08-28T14:11:58.920Z,13.20
2022-08-28T14:14:33.130Z,13.20
2022-08-28T14:17:04.685Z,13.20
2022-08-28T14:19:35.982Z,13.30
2022-08-28T14:22:07.514Z,13.40
2022-08-28T14:24:39.280Z,13.50
2022-08-28T14:27:10.984Z,13.50
2022-08-28T14:29:44.338Z,13.40
2022-08-28T14:32:16.099Z,13.60
2022-08-28T14:34:48.472Z,13.60
2022-08-28T14:37:20.101Z,13.60
2022-08-28T14:39:51.568Z,13.70
2022-08-28T14:42:22.910Z,13.70
2022-08-28T14:44:55.595Z,13.70
2022-08-28T14:47:28.022Z,13.80
2022-08-28T14:49:59.193Z,13.90
2022-08-28T14:52:32.611Z,13.90
2022-08-28T14:55:03.833Z,13.90
2022-08-28T14:57:36.070Z,13.90
2022-08-28T15:00:16.146Z,13.90
2022-08-28T15:02:49.556Z,14.10
2022-08-28T15:05:26.641Z,14.30
2022-08-28T15:07:57.744Z,14.40
2022-08-28T15:10:28.712Z,14.60
2022-08-28T15:12:59.706Z,14.60
2022-08-28T15:15:33.762Z,14.80
2022-08-28T15:18:05.141Z,14.90
2022-08-28T15:20:41.679Z,14.90
2022-08-28T15:23:13.976Z,15.00
2022-08-28T15:25:45.788Z,15.10
2022-08-28T15:28:16.948Z,15.10
2022-08-28T15:30:57.722Z,15.10
2022-08-28T15:33:31.809Z,15.00
2022-08-28T15:36:03.032Z,14.80
2022-08-28T15:38:54.743Z,14.80
2022-08-28T15:41:26.513Z,14.80
2022-08-28T15:44:01.687Z,14.80
2022-08-28T15:46:38.024Z,14.90
2022-08-28T15:49:10.362Z,15.00
2022-08-28T15:51:41.387Z,15.20
2022-08-28T15:54:13.282Z,15.40
2022-08-28T15:56:45.044Z,15.50
2022-08-28T15:59:16.905Z,15.50
2022-08-28T16:01:50.822Z,15.70
2022-08-28T16:04:23.004Z,15.70
2022-08-28T16:07:00.359Z,15.80
2022-08-28T16:09:32.053Z,15.80
2022-08-28T16:12:03.555Z,15.90
2022-08-28T16:14:35.529Z,16.00
2022-08-28T16:17:11.148Z,15.90
2022-08-28T16:19:45.275Z,16.10
2022-08-28T16:22:17.944Z,16.20
2022-08-28T16:24:49.645Z,16.20
2022-08-28T16:27:21.508Z,16.10
2022-08-28T16:29:53.085Z,16.10
2022-08-28T16:32:27.271Z,16.00
2022-08-28T16:34:58.536Z,16.00
2022-08-28T16:37:37.758Z,16.20
2022-08-28T16:40:14.762Z,16.20
2022-08-28T16:42:51.382Z,16.20
2022-08-28T16:45:23.608Z,16.20
2022-08-28T16:47:57.029Z,16.30
2022-08-28T16:50:32.709Z,16.10
2022-08-28T16:53:07.066Z,16.30
2022-08-28T16:55:39.384Z,16.40
2022-08-28T16:58:14.980Z,16.50
2022-08-28T17:00:52.795Z,16.50
2022-08-28T17:03:30.543Z,16.50
2022-08-28T17:06:03.187Z,16.60
2022-08-28T17:08:34.434Z,16.70
2022-08-28T17:11:08.056Z,16.80
2022-08-28T17:13:40.113Z,16.90
2022-08-28T17:16:12.068Z,17.00
2022-08-28T17:18:47.481Z,16.90
2022-08-28T17:21:39.405Z,16.80
2022-08-28T17:24:13.476Z,16.70
2022-08-28T17:26:45.525Z,16.80
2022-08-28T17:29:17.177Z,16.80
2022-08-28T17:31:50.749Z,16.90
2022-08-28T17:34:31.294Z,17.00
2022-08-28T17:37:02.964Z,16.90
2022-08-28T17:39:34.486Z,17.10
2022-08-28T17:42:05.838Z,17.20
2022-08-28T17:44:37.737Z,17.30
2022-08-28T17:47:08.962Z,17.30
2022-08-28T17:49:42.664Z,17.30
2022-08-28T17:52:15.327Z,17.50
2022-08-28T17:54:46.697Z,17.60
2022-08-28T17:57:17.781Z,17.60
2022-08-28T17:59:49.495Z,17.70
2022-08-28T18:02:20.081Z,17.70
2022-08-28T18:04:53.427Z,17.90
2022-08-28T18:07:24.739Z,18.00
2022-08-28T18:09:56.270Z,18.10
2022-08-28T18:12:28.187Z,18.10
2022-08-28T18:14:59.504Z,18.30
2022-08-28T18:17:31.149Z,18.30
2022-08-28T18:20:04.785Z,18.20
2022-08-28T18:22:36.681Z,18.30
2022-08-28T18:25:08.461Z,18.40
2022-08-28T18:27:39.687Z,18.60
2022-08-28T18:30:11.694Z,18.70
2022-08-28T18:32:43.352Z,18.60
2022-08-28T18:35:16.759Z,18.60
2022-08-28T18:37:48.337Z,18.70
2022-08-28T18:40:23.002Z,18.70
2022-08-28T18:42:54.622Z,18.90
2022-08-28T18:45:25.790Z,19.00
2022-08-28T18:47:56.620Z,19.00
2022-08-28T18:50:34.228Z,19.00
2022-08-28T18:53:06.002Z,19.00
2022-08-28T18:55:37.810Z,19.00
2022-08-28T18:58:15.154Z,19.10
2022-08-28T19:00:46.956Z,19.30
2022-08-28T19:03:18.769Z,19.30
2022-08-28T19:05:52.976Z,19.50
2022-08-28T19:08:24.971Z,19.60
2022-08-28T19:10:56.868Z,19.70
2022-08-28T19:13:28.929Z,19.70
2022-08-28T19:16:00.322Z,19.80
2022-08-28T19:18:32.268Z,19.90
2022-08-28T19:21:22.746Z,20.00
2022-08-28T19:23:56.504Z,19.80
2022-08-28T19:26:28.653Z,19.90
2022-08-28T19:29:00.559Z,19.90
2022-08-28T19:31:32.621Z,20.00
2022-08-28T19:34:03.864Z,19.90
2022-08-28T19:36:39.423Z,20.00
2022-08-28T19:39:10.859Z,20.10
2022-08-28T19:41:42.796Z,20.10
2022-08-28T19:44:15.709Z,20.30
2022-08-28T19:46:47.234Z,20.30
2022-08-28T19:49:18.753Z,20.20
2022-08-28T19:51:52.739Z,20.30
2022-08-28T19:54:23.932Z,20.20
2022-08-28T19:56:55.134Z,20.40
2022-08-28T19:59:27.239Z,20.40
2022-08-28T20:02:00.497Z,20.50
2022-08-28T20:04:31.882Z,20.70
2022-08-28T20:07:05.879Z,20.80
2022-08-28T20:09:37.166Z,20.90
2022-08-28T20:12:09.300Z,20.90
2022-08-28T20:14:43.596Z,21.00
2022-08-28T20:17:16.862Z,21.20
2022-08-28T20:19:48.730Z,21.10
2022-08-28T20:22:22.391Z,21.20
2022-08-28T20:24:54.222Z,21.20
2022-08-28T20:27:25.118Z,21.20
2022-08-28T20:29:56.552Z,21.50
2022-08-28T20:32:29.345Z,21.50
2022-08-28T20:35:00.574Z,21.40
2022-08-28T20:37:44.636Z,21.60
2022-08-28T20:40:21.486Z,21.90
2022-08-28T20:42:53.629Z,22.00
2022-08-28T20:45:25.645Z,22.20
2022-08-28T20:47:56.857Z,22.20
2022-08-28T20:50:28.360Z,22.30
2022-08-28T20:53:03.691Z,22.50
2022-08-28T20:55:36.234Z,22.40
2022-08-28T20:58:07.966Z,22.60
2022-08-28T21:00:39.389Z,22.90
2022-08-28T21:03:13.194Z,22.90
2022-08-28T21:05:47.760Z,23.00
2022-08-28T21:08:26.945Z,23.00
2022-08-28T21:10:58.654Z,23.10
2022-08-28T21:13:30.118Z,23.20
2022-08-28T21:16:02.202Z,23.50
2022-08-28T21:18:35.187Z,23.70
2022-08-28T21:21:08.113Z,24.00
2022-08-28T21:23:44.593Z,24.00
2022-08-28T21:26:16.234Z,23.70
2022-08-28T21:28:48.489Z,23.50
2022-08-28T21:31:21.551Z,23.80
2022-08-28T21:33:52.574Z,24.10
2022-08-28T21:36:24.303Z,24.40
2022-08-28T21:38:57.592Z,24.30
2022-08-28T21:41:29.048Z,24.30
2022-08-28T21:44:00.425Z,24.20
2022-08-28T21:46:31.786Z,23.90
2022-08-28T21:49:03.243Z,23.80
2022-08-28T21:51:34.612Z,23.90
2022-08-28T21:54:08.512Z,24.00
2022-08-28T21:56:39.542Z,24.20
2022-08-28T21:59:10.759Z,24.30
2022-08-28T22:01:42.478Z,24.30
2022-08-28T22:04:14.220Z,24.20
2022-08-28T22:06:46.304Z,24.40
2022-08-28T22:09:19.522Z,24.50
2022-08-28T22:11:51.133Z,24.60
2022-08-28T22:14:22.738Z,24.90
2022-08-28T22:16:54.029Z,25.00
2022-08-28T22:19:25.454Z,25.00
2022-08-28T22:22:13.537Z,25.40
2022-08-28T22:24:48.182Z,25.50
2022-08-28T22:30:01.885Z,25.20
2022-08-28T22:32:33.632Z,25.50
2022-08-28T22:35:04.945Z,25.40
2022-08-28T22:37:37.092Z,25.70
2022-08-28T22:40:13.592Z,26.00
2022-08-28T22:42:46.095Z,25.90
2022-08-28T22:45:17.890Z,25.80
2022-08-28T22:47:50.645Z,25.50
2022-08-28T22:50:22.165Z,25.80
2022-08-28T22:52:54.167Z,25.50
2022-08-28T22:55:28.213Z,25.80
2022-08-28T22:58:01.641Z,26.10
2022-08-28T23:00:34.480Z,26.30
2022-08-28T23:03:06.810Z,26.20
2022-08-28T23:05:37.734Z,26.40
2022-08-28T23:08:08.928Z,26.50
2022-08-28T23:10:58.477Z,26.70
2022-08-28T23:13:30.567Z,26.60
2022-08-28T23:16:01.874Z,26.30
2022-08-28T23:18:51.679Z,26.20
2022-08-28T23:21:27.595Z,26.20
2022-08-28T23:24:00.078Z,26.20
2022-08-28T23:26:35.068Z,26.00
2022-08-28T23:29:07.249Z,25.70
2022-08-28T23:31:39.524Z,26.40
2022-08-28T23:34:11.000Z,26.60
2022-08-28T23:36:43.376Z,26.70
2022-08-28T23:39:15.695Z,26.80
2022-08-28T23:41:49.285Z,26.70
2022-08-28T23:44:21.330Z,26.60
2022-08-28T23:46:51.980Z,26.90
2022-08-28T23:49:26.847Z,27.10
2022-08-28T23:51:57.962Z,27.30
2022-08-28T23:54:31.625Z,27.40
2022-08-28T23:57:05.939Z,27.40
2022-08-28T23:59:37.222Z,27.50
